createdAt,value
2023-01-22T00:01:52.537Z,0.40
2023-01-22T00:04:20.290Z,0.50
2023-01-22T00:06:49.475Z,0.40
2023-01-22T00:09:17.315Z,0.40
2023-01-22T00:11:45.088Z,0.40
2023-01-22T00:14:12.919Z,0.50
2023-01-22T00:16:41.337Z,0.40
2023-01-22T00:19:09.330Z,0.40
2023-01-22T00:21:37.073Z,0.40
2023-01-22T00:24:06.529Z,0.40
2023-01-22T00:26:34.221Z,0.40
2023-01-22T00:29:02.087Z,0.30
2023-01-22T00:31:29.932Z,0.40
2023-01-22T00:33:57.869Z,0.40
2023-01-22T00:36:25.741Z,0.40
2023-01-22T00:38:53.540Z,0.30
2023-01-22T00:41:22.951Z,0.37
2023-01-22T00:43:52.743Z,0.40
2023-01-22T00:46:20.807Z,0.40
2023-01-22T00:48:49.765Z,0.40
2023-01-22T00:51:17.925Z,0.30
2023-01-22T00:53:45.865Z,0.40
2023-01-22T00:56:14.217Z,0.40
2023-01-22T00:58:43.843Z,0.33
2023-01-22T01:01:13.633Z,0.30
2023-01-22T01:03:41.436Z,0.30
2023-01-22T01:06:11.753Z,0.40
2023-01-22T01:08:42.521Z,0.40
2023-01-22T01:11:12.813Z,0.40
2023-01-22T01:13:43.078Z,0.40
2023-01-22T01:16:14.670Z,0.40
2023-01-22T01:18:42.584Z,0.40
2023-01-22T01:21:12.038Z,0.40
2023-01-22T01:23:39.869Z,0.40
2023-01-22T01:26:08.240Z,0.40
2023-01-22T01:28:36.317Z,0.40
2023-01-22T01:31:05.382Z,0.40
2023-01-22T01:33:34.600Z,0.40
2023-01-22T01:36:02.998Z,0.40
2023-01-22T01:38:30.780Z,0.40
2023-01-22T01:40:58.818Z,0.40
2023-01-22T01:43:26.637Z,0.40
2023-01-22T01:45:55.023Z,0.40
2023-01-22T01:48:26.321Z,0.40
2023-01-22T01:50:59.154Z,0.50
2023-01-22T01:53:26.904Z,0.40
2023-01-22T01:55:56.382Z,0.40
2023-01-22T01:58:25.349Z,0.40
2023-01-22T02:00:55.189Z,0.40
2023-01-22T02:03:23.304Z,0.40
2023-01-22T02:05:51.047Z,0.40
2023-01-22T02:08:20.257Z,0.40
2023-01-22T02:10:48.116Z,0.40
2023-01-22T02:13:19.295Z,0.40
2023-01-22T02:15:47.230Z,0.40
2023-01-22T02:18:15.288Z,0.40
2023-01-22T02:20:52.916Z,0.40
2023-01-22T02:23:20.671Z,0.40
2023-01-22T02:25:48.528Z,0.40
2023-01-22T02:28:16.320Z,0.40
2023-01-22T02:30:44.872Z,0.47
2023-01-22T02:33:12.657Z,0.40
2023-01-22T02:35:40.449Z,0.40
2023-01-22T02:38:09.644Z,0.50
2023-01-22T02:40:49.118Z,0.47
2023-01-22T02:43:17.547Z,0.40
2023-01-22T02:45:45.317Z,0.50
2023-01-22T02:48:13.093Z,0.40
2023-01-22T02:50:40.853Z,0.40
2023-01-22T02:53:10.033Z,0.40
2023-01-22T02:55:38.709Z,0.40
2023-01-22T02:58:06.522Z,0.50
2023-01-22T03:00:34.257Z,0.50
2023-01-22T03:03:07.795Z,0.40
2023-01-22T03:05:35.740Z,0.30
2023-01-22T03:08:03.531Z,0.30
2023-01-22T03:10:32.767Z,0.40
2023-01-22T03:13:17.518Z,0.40
2023-01-22T03:16:02.861Z,0.40
2023-01-22T03:18:47.672Z,0.40
2023-01-22T03:21:18.876Z,0.40
2023-01-22T03:23:47.178Z,0.40
2023-01-22T03:26:16.306Z,0.50
2023-01-22T03:28:46.000Z,0.50
2023-01-22T03:31:17.252Z,0.50
2023-01-22T03:33:45.107Z,0.50
2023-01-22T03:36:14.142Z,0.50
2023-01-22T03:38:41.924Z,0.40
2023-01-22T03:41:10.365Z,0.50
2023-01-22T03:43:39.555Z,0.40
2023-01-22T03:46:08.089Z,0.43
2023-01-22T03:48:35.859Z,0.50
2023-01-22T03:51:07.855Z,0.40
2023-01-22T03:53:35.628Z,0.50
2023-01-22T03:56:04.743Z,0.50
2023-01-22T03:58:32.910Z,0.50
2023-01-22T04:01:03.639Z,0.50
2023-01-22T04:03:31.855Z,0.40
2023-01-22T04:06:01.298Z,0.50
2023-01-22T04:08:29.623Z,0.40
2023-01-22T04:10:57.497Z,0.47
2023-01-22T04:13:25.677Z,0.50
2023-01-22T04:15:53.779Z,0.50
2023-01-22T04:18:22.968Z,0.40
2023-01-22T04:20:51.053Z,0.40
2023-01-22T04:23:19.024Z,0.50
2023-01-22T04:25:46.883Z,0.40
2023-01-22T04:28:14.806Z,0.40
2023-01-22T04:30:43.067Z,0.40
2023-01-22T04:33:11.180Z,0.40
2023-01-22T04:35:40.772Z,0.40
2023-01-22T04:38:09.016Z,0.50
2023-01-22T04:40:36.776Z,0.50
2023-01-22T04:43:05.016Z,0.40
2023-01-22T04:45:32.757Z,0.50
2023-01-22T04:48:00.692Z,0.50
2023-01-22T04:50:29.745Z,0.50
2023-01-22T04:52:59.311Z,0.50
2023-01-22T04:55:27.395Z,0.50
2023-01-22T04:57:55.690Z,0.40
2023-01-22T05:00:23.915Z,0.50
2023-01-22T05:02:51.806Z,0.40
2023-01-22T05:05:19.628Z,0.50
2023-01-22T05:07:47.438Z,0.50
2023-01-22T05:10:17.322Z,0.50
2023-01-22T05:12:45.322Z,0.50
2023-01-22T05:15:23.572Z,0.50
2023-01-22T05:17:52.551Z,0.50
2023-01-22T05:20:20.931Z,0.50
2023-01-22T05:22:48.946Z,0.50
2023-01-22T05:25:18.568Z,0.50
2023-01-22T05:27:46.359Z,0.40
2023-01-22T05:30:14.657Z,0.50
2023-01-22T05:32:42.517Z,0.50
2023-01-22T05:35:10.648Z,0.40
2023-01-22T05:37:38.416Z,0.50
2023-01-22T05:40:07.003Z,0.50
2023-01-22T05:42:36.163Z,0.43
2023-01-22T05:45:04.066Z,0.40
2023-01-22T05:47:31.842Z,0.30
2023-01-22T05:49:59.642Z,0.40
2023-01-22T05:52:27.450Z,0.50
2023-01-22T05:54:55.213Z,0.40
2023-01-22T05:57:22.975Z,0.40
2023-01-22T05:59:52.152Z,0.40
2023-01-22T06:02:19.875Z,0.40
2023-01-22T06:04:47.658Z,0.40
2023-01-22T06:07:15.423Z,0.30
2023-01-22T06:09:43.160Z,0.37
2023-01-22T06:12:10.891Z,0.30
2023-01-22T06:14:38.682Z,0.40
2023-01-22T06:17:07.877Z,0.40
2023-01-22T06:19:35.604Z,0.50
2023-01-22T06:22:03.339Z,0.33
2023-01-22T06:24:31.110Z,0.40
2023-01-22T06:26:58.876Z,0.40
2023-01-22T06:29:26.777Z,0.40
2023-01-22T06:31:54.620Z,0.40
2023-01-22T06:34:29.722Z,0.40
2023-01-22T06:36:57.513Z,0.50
2023-01-22T06:39:25.227Z,0.30
2023-01-22T06:41:52.978Z,0.40
2023-01-22T06:44:20.757Z,0.40
2023-01-22T06:46:49.023Z,0.40
2023-01-22T06:49:16.849Z,0.40
2023-01-22T06:51:46.102Z,0.40
2023-01-22T06:54:14.725Z,0.40
2023-01-22T06:56:42.480Z,0.40
2023-01-22T06:59:10.510Z,0.40
2023-01-22T07:01:38.300Z,0.50
2023-01-22T07:04:06.187Z,0.40
2023-01-22T07:06:34.014Z,0.40
2023-01-22T07:09:03.214Z,0.40
2023-01-22T07:11:30.992Z,0.50
2023-01-22T07:13:58.759Z,0.50
2023-01-22T07:16:26.679Z,0.50
2023-01-22T07:18:54.468Z,0.40
2023-01-22T07:21:22.201Z,0.30
2023-01-22T07:23:50.055Z,0.40
2023-01-22T07:26:19.348Z,0.40
2023-01-22T07:28:47.259Z,0.40
2023-01-22T07:31:15.130Z,0.40
2023-01-22T07:33:42.949Z,0.40
2023-01-22T07:36:10.915Z,0.40
2023-01-22T07:38:38.660Z,0.50
2023-01-22T07:41:16.936Z,0.50
2023-01-22T07:43:50.619Z,0.50
2023-01-22T07:46:18.377Z,0.50
2023-01-22T07:48:46.997Z,0.50
2023-01-22T07:51:15.115Z,0.50
2023-01-22T07:53:42.918Z,0.50
2023-01-22T07:56:10.744Z,0.33
2023-01-22T07:58:39.485Z,0.40
2023-01-22T08:01:08.934Z,0.40
2023-01-22T08:03:37.928Z,0.40
2023-01-22T08:06:08.801Z,0.33
2023-01-22T08:08:36.780Z,0.40
2023-01-22T08:11:04.664Z,0.30
2023-01-22T08:13:32.631Z,0.40
2023-01-22T08:16:00.492Z,0.40
2023-01-22T08:18:30.074Z,0.40
2023-01-22T08:21:00.620Z,0.30
2023-01-22T08:23:28.503Z,0.40
2023-01-22T08:25:59.033Z,0.40
2023-01-22T08:28:26.772Z,0.40
2023-01-22T08:30:58.091Z,0.40
2023-01-22T08:33:26.030Z,0.40
2023-01-22T08:35:55.384Z,0.40
2023-01-22T08:38:23.238Z,0.40
2023-01-22T08:40:51.345Z,0.30
2023-01-22T08:43:19.196Z,0.40
2023-01-22T08:45:49.521Z,0.40
2023-01-22T08:48:17.331Z,0.40
2023-01-22T08:50:45.193Z,0.40
2023-01-22T08:53:14.377Z,0.40
2023-01-22T08:55:42.087Z,0.40
2023-01-22T08:58:10.682Z,0.40
2023-01-22T09:00:38.468Z,0.40
2023-01-22T09:03:06.228Z,0.40
2023-01-22T09:05:33.993Z,0.40
2023-01-22T09:08:01.730Z,0.40
2023-01-22T09:10:30.950Z,0.40
2023-01-22T09:13:00.031Z,0.50
2023-01-22T09:15:27.884Z,0.40
2023-01-22T09:17:55.711Z,0.40
2023-01-22T09:20:23.575Z,0.40
2023-01-22T09:22:51.371Z,0.40
2023-01-22T09:25:19.322Z,0.30
2023-01-22T09:27:48.580Z,0.40
2023-01-22T09:30:16.644Z,0.40
2023-01-22T09:32:44.530Z,0.50
2023-01-22T09:35:12.281Z,0.40
2023-01-22T09:37:40.024Z,0.40
2023-01-22T09:40:08.539Z,0.40
2023-01-22T09:42:40.383Z,0.40
2023-01-22T09:45:12.228Z,0.40
2023-01-22T09:47:42.017Z,0.40
2023-01-22T09:50:15.266Z,0.40
2023-01-22T09:52:43.141Z,0.40
2023-01-22T09:55:13.329Z,0.40
2023-01-22T09:57:44.734Z,0.50
2023-01-22T10:00:19.256Z,0.40
2023-01-22T10:02:50.007Z,0.50
2023-01-22T10:05:20.761Z,0.50
2023-01-22T10:07:52.328Z,0.40
2023-01-22T10:10:21.295Z,0.40
2023-01-22T10:12:52.312Z,0.40
2023-01-22T10:15:23.779Z,0.40
2023-01-22T10:17:51.802Z,0.40
2023-01-22T10:20:21.173Z,0.40
2023-01-22T10:22:49.418Z,0.50
2023-01-22T10:25:17.864Z,0.40
2023-01-22T10:27:46.243Z,0.40
2023-01-22T10:30:20.043Z,0.40
2023-01-22T10:32:58.456Z,0.50
2023-01-22T10:35:26.284Z,0.50
2023-01-22T10:37:54.901Z,0.40
2023-01-22T10:40:24.094Z,0.40
2023-01-22T10:43:01.768Z,0.50
2023-01-22T10:45:29.928Z,0.43
2023-01-22T10:48:11.944Z,0.40
2023-01-22T10:50:39.942Z,0.40
2023-01-22T10:53:14.646Z,0.43
2023-01-22T10:55:43.223Z,0.40
2023-01-22T10:58:16.792Z,0.50
2023-01-22T11:00:51.868Z,0.50
2023-01-22T11:03:22.990Z,0.40
2023-01-22T11:05:53.948Z,0.40
2023-01-22T11:08:23.756Z,0.50
2023-01-22T11:10:52.984Z,0.50
2023-01-22T11:13:21.803Z,0.50
2023-01-22T11:15:53.702Z,0.50
2023-01-22T11:18:28.834Z,0.60
2023-01-22T11:20:57.290Z,0.50
2023-01-22T11:23:28.452Z,0.47
2023-01-22T11:26:00.106Z,0.50
2023-01-22T11:28:32.825Z,0.40
2023-01-22T11:31:04.479Z,0.50
2023-01-22T11:33:48.704Z,0.50
2023-01-22T11:36:19.612Z,0.50
2023-01-22T11:38:51.354Z,0.50
2023-01-22T11:41:26.239Z,0.50
2023-01-22T11:44:05.589Z,0.50
2023-01-22T11:46:40.696Z,0.50
2023-01-22T11:49:14.578Z,0.40
2023-01-22T11:51:47.963Z,0.50
2023-01-22T11:54:33.684Z,0.50
2023-01-22T11:57:06.834Z,0.50
2023-01-22T11:59:38.655Z,0.40
2023-01-22T12:02:14.091Z,0.43
2023-01-22T12:04:56.230Z,0.50
2023-01-22T12:07:46.034Z,0.50
2023-01-22T12:10:22.943Z,0.50
2023-01-22T12:12:54.044Z,0.50
2023-01-22T12:15:26.814Z,0.50
2023-01-22T12:18:01.760Z,0.50
2023-01-22T12:20:37.541Z,0.50
2023-01-22T12:23:07.665Z,0.50
2023-01-22T12:25:37.591Z,0.50
2023-01-22T12:28:15.441Z,0.50
2023-01-22T12:30:48.872Z,0.60
2023-01-22T12:33:20.457Z,0.50
2023-01-22T12:35:51.176Z,0.50
2023-01-22T12:38:23.904Z,0.40
2023-01-22T12:41:00.898Z,0.40
2023-01-22T12:43:31.577Z,0.40
2023-01-22T12:46:02.543Z,0.50
2023-01-22T12:48:33.445Z,0.47
2023-01-22T12:51:02.693Z,0.50
2023-01-22T12:53:31.158Z,0.50
2023-01-22T12:55:59.959Z,0.40
2023-01-22T12:58:28.769Z,0.50
2023-01-22T13:01:07.479Z,0.50
2023-01-22T13:03:35.549Z,0.50
2023-01-22T13:06:06.033Z,0.40
2023-01-22T13:08:38.210Z,0.50
2023-01-22T13:11:07.190Z,0.40
2023-01-22T13:13:36.236Z,0.50
2023-01-22T13:16:05.505Z,0.50
2023-01-22T13:18:35.458Z,0.50
2023-01-22T13:21:06.865Z,0.53
2023-01-22T13:23:35.608Z,0.50
2023-01-22T13:26:03.823Z,0.50
2023-01-22T13:28:31.883Z,0.60
2023-01-22T13:31:01.156Z,0.50
2023-01-22T13:33:29.015Z,0.50
2023-01-22T13:35:57.180Z,0.50
2023-01-22T13:38:27.132Z,0.50
2023-01-22T13:40:56.646Z,0.50
2023-01-22T13:43:24.726Z,0.50
2023-01-22T13:45:53.305Z,0.60
2023-01-22T13:48:22.139Z,0.50
2023-01-22T13:50:53.611Z,0.50
2023-01-22T13:53:25.100Z,0.50
2023-01-22T13:55:54.762Z,0.50
2023-01-22T13:58:46.729Z,0.60
2023-01-22T14:01:27.039Z,0.50
2023-01-22T14:03:59.763Z,0.50
2023-01-22T14:06:27.820Z,0.50
2023-01-22T14:08:56.213Z,0.50
2023-01-22T14:11:25.436Z,0.60
2023-01-22T14:13:53.889Z,0.57
2023-01-22T14:16:21.705Z,0.60
2023-01-22T14:18:49.513Z,0.50
2023-01-22T14:21:17.230Z,0.60
2023-01-22T14:23:46.314Z,0.40
2023-01-22T14:26:14.087Z,0.40
2023-01-22T14:28:43.255Z,0.40
2023-01-22T14:31:11.102Z,0.40
2023-01-22T14:33:38.919Z,0.50
2023-01-22T14:36:07.025Z,0.50
2023-01-22T14:38:34.755Z,0.50
2023-01-22T14:41:04.727Z,0.50
2023-01-22T14:43:32.520Z,0.50
2023-01-22T14:46:01.796Z,0.40
2023-01-22T14:48:29.628Z,0.50
2023-01-22T14:50:57.865Z,0.50
2023-01-22T14:53:25.765Z,0.60
2023-01-22T14:55:53.534Z,0.60
2023-01-22T14:58:21.323Z,0.50
2023-01-22T15:00:49.132Z,0.50
2023-01-22T15:03:18.401Z,0.50
2023-01-22T15:05:46.356Z,0.50
2023-01-22T15:08:14.122Z,0.50
2023-01-22T15:10:41.874Z,0.50
2023-01-22T15:13:09.647Z,0.50
2023-01-22T15:15:37.424Z,0.50
2023-01-22T15:18:05.146Z,0.60
2023-01-22T15:20:34.614Z,0.50
2023-01-22T15:23:02.360Z,0.60
2023-01-22T15:25:32.235Z,0.60
2023-01-22T15:28:00.000Z,0.60
2023-01-22T15:30:27.956Z,0.70
2023-01-22T15:32:55.711Z,0.60
2023-01-22T15:35:23.679Z,0.60
2023-01-22T15:37:52.902Z,0.63
2023-01-22T15:40:21.536Z,0.70
2023-01-22T15:42:49.674Z,0.60
2023-01-22T15:45:17.724Z,0.80
2023-01-22T15:47:45.865Z,0.80
2023-01-22T15:50:20.330Z,0.60
2023-01-22T15:52:48.374Z,0.80
2023-01-22T15:55:17.892Z,0.80
2023-01-22T15:57:45.779Z,0.70
2023-01-22T16:00:15.146Z,0.87
2023-01-22T16:02:43.747Z,0.80
2023-01-22T16:05:13.224Z,0.90
2023-01-22T16:07:41.560Z,0.90
2023-01-22T16:10:09.983Z,0.80
2023-01-22T16:12:39.326Z,0.80
2023-01-22T16:15:08.062Z,0.80
2023-01-22T16:17:35.841Z,0.90
2023-01-22T16:20:05.489Z,0.80
2023-01-22T16:22:34.542Z,0.70
2023-01-22T16:25:02.429Z,0.70
2023-01-22T16:27:30.336Z,0.83
2023-01-22T16:29:59.613Z,0.70
2023-01-22T16:32:27.579Z,0.70
2023-01-22T16:34:55.407Z,0.67
2023-01-22T16:37:23.181Z,0.63
2023-01-22T16:39:51.132Z,0.67
2023-01-22T16:42:18.964Z,0.80
2023-01-22T16:44:47.400Z,0.70
2023-01-22T16:47:16.596Z,0.70
2023-01-22T16:49:44.376Z,0.67
2023-01-22T16:52:22.410Z,0.60
2023-01-22T16:54:51.097Z,0.60
2023-01-22T16:57:19.645Z,0.70
2023-01-22T16:59:47.371Z,0.70
2023-01-22T17:02:19.158Z,0.53
2023-01-22T17:04:47.155Z,0.70
2023-01-22T17:07:31.548Z,0.80
2023-01-22T17:10:00.501Z,0.70
2023-01-22T17:12:28.444Z,0.70
2023-01-22T17:14:56.304Z,0.70
2023-01-22T17:17:25.602Z,0.53
2023-01-22T17:19:53.389Z,0.60
2023-01-22T17:22:21.192Z,0.70
2023-01-22T17:24:49.624Z,0.70
2023-01-22T17:27:18.682Z,0.70
2023-01-22T17:29:46.583Z,0.70
2023-01-22T17:32:14.621Z,0.77
2023-01-22T17:34:43.878Z,0.80
2023-01-22T17:37:11.675Z,0.77
2023-01-22T17:39:39.780Z,0.80
2023-01-22T17:42:07.751Z,0.70
2023-01-22T17:44:35.622Z,0.70
2023-01-22T17:47:03.715Z,0.80
2023-01-22T17:49:32.574Z,0.80
2023-01-22T17:52:01.826Z,0.80
2023-01-22T17:54:29.552Z,0.60
2023-01-22T17:56:57.420Z,0.80
2023-01-22T17:59:25.463Z,0.80
2023-01-22T18:01:53.303Z,0.70
2023-01-22T18:04:21.127Z,0.80
2023-01-22T18:06:49.867Z,0.80
2023-01-22T18:09:19.097Z,0.60
2023-01-22T18:11:46.830Z,0.60
2023-01-22T18:14:17.483Z,0.70
2023-01-22T18:16:46.034Z,0.80
2023-01-22T18:19:14.096Z,0.70
2023-01-22T18:21:42.267Z,0.70
2023-01-22T18:24:10.327Z,0.70
2023-01-22T18:26:39.599Z,0.70
2023-01-22T18:29:07.507Z,0.70
2023-01-22T18:31:35.581Z,0.63
2023-01-22T18:34:04.339Z,0.77
2023-01-22T18:36:33.491Z,0.70
2023-01-22T18:39:01.815Z,0.70
2023-01-22T18:41:29.542Z,0.70
2023-01-22T18:43:59.712Z,0.60
2023-01-22T18:46:29.249Z,0.70
2023-01-22T18:48:58.075Z,0.70
2023-01-22T18:51:26.936Z,0.80
2023-01-22T18:53:55.260Z,0.60
2023-01-22T18:56:25.279Z,0.60
2023-01-22T18:58:54.601Z,0.60
2023-01-22T19:01:24.920Z,0.50
2023-01-22T19:03:53.563Z,0.50
2023-01-22T19:06:22.912Z,0.60
2023-01-22T19:08:54.866Z,0.70
2023-01-22T19:11:23.028Z,0.60
2023-01-22T19:13:53.261Z,0.70
2023-01-22T19:16:21.467Z,0.70
2023-01-22T19:18:54.707Z,0.60
2023-01-22T19:21:22.803Z,0.70
2023-01-22T19:23:51.586Z,0.70
2023-01-22T19:26:21.121Z,0.70
2023-01-22T19:28:49.039Z,0.70
2023-01-22T19:31:17.893Z,0.63
2023-01-22T19:33:45.959Z,0.70
2023-01-22T19:36:15.221Z,0.63
2023-01-22T19:38:52.890Z,0.67
2023-01-22T19:41:21.386Z,0.70
2023-01-22T19:43:49.147Z,0.70
2023-01-22T19:46:17.044Z,0.60
2023-01-22T19:48:44.801Z,0.60
2023-01-22T19:51:13.713Z,0.70
2023-01-22T19:53:43.151Z,0.70
2023-01-22T19:56:16.883Z,0.80
2023-01-22T19:58:44.851Z,0.70
2023-01-22T20:01:12.865Z,0.70
2023-01-22T20:03:40.698Z,0.70
2023-01-22T20:06:09.166Z,0.70
2023-01-22T20:08:37.271Z,0.70
2023-01-22T20:11:08.051Z,0.70
2023-01-22T20:13:36.086Z,0.80
2023-01-22T20:16:04.210Z,0.77
2023-01-22T20:18:33.231Z,0.80
2023-01-22T20:21:01.934Z,0.70
2023-01-22T20:23:30.169Z,0.70
2023-01-22T20:25:59.159Z,0.80
2023-01-22T20:28:28.374Z,0.70
2023-01-22T20:30:59.823Z,0.60
2023-01-22T20:33:27.995Z,0.70
2023-01-22T20:35:56.428Z,0.73
2023-01-22T20:38:24.585Z,0.77
2023-01-22T20:40:52.424Z,0.80
2023-01-22T20:43:20.830Z,0.90
2023-01-22T20:45:59.642Z,0.80
2023-01-22T20:48:27.438Z,0.80
2023-01-22T20:50:55.334Z,0.70
2023-01-22T20:53:23.135Z,0.80
2023-01-22T20:55:58.656Z,0.80
2023-01-22T20:58:26.655Z,0.70
2023-01-22T21:00:54.598Z,0.80
2023-01-22T21:03:24.727Z,0.70
2023-01-22T21:05:52.567Z,0.70
2023-01-22T21:08:20.311Z,0.70
2023-01-22T21:10:56.136Z,0.80
2023-01-22T21:13:24.467Z,0.70
2023-01-22T21:15:52.846Z,0.70
2023-01-22T21:18:20.996Z,0.60
2023-01-22T21:20:50.517Z,0.80
2023-01-22T21:23:18.278Z,0.70
2023-01-22T21:25:46.069Z,0.60
2023-01-22T21:28:13.855Z,0.80
2023-01-22T21:30:41.855Z,0.80
2023-01-22T21:33:09.689Z,0.70
2023-01-22T21:35:37.705Z,0.70
2023-01-22T21:38:06.905Z,0.70
2023-01-22T21:40:34.782Z,0.70
2023-01-22T21:43:20.149Z,0.67
2023-01-22T21:46:05.102Z,0.60
2023-01-22T21:48:33.046Z,0.70
2023-01-22T21:51:01.204Z,0.70
2023-01-22T21:53:30.376Z,0.70
2023-01-22T21:55:58.219Z,0.70
2023-01-22T21:58:26.078Z,0.70
2023-01-22T22:01:06.625Z,0.70
2023-01-22T22:03:35.744Z,0.70
2023-01-22T22:06:03.553Z,0.70
2023-01-22T22:08:32.722Z,0.70
2023-01-22T22:11:00.957Z,0.60
2023-01-22T22:13:28.851Z,0.70
2023-01-22T22:15:56.563Z,0.70
2023-01-22T22:18:24.332Z,0.60
2023-01-22T22:20:52.116Z,0.70
2023-01-22T22:23:19.952Z,0.70
2023-01-22T22:25:49.412Z,0.70
2023-01-22T22:28:17.784Z,0.70
2023-01-22T22:30:45.784Z,0.60
2023-01-22T22:33:13.576Z,0.60
2023-01-22T22:35:41.294Z,0.70
2023-01-22T22:38:09.093Z,0.50
2023-01-22T22:40:36.844Z,0.60
2023-01-22T22:43:06.011Z,0.60
2023-01-22T22:45:36.720Z,0.60
2023-01-22T22:48:04.628Z,0.60
2023-01-22T22:50:32.442Z,0.60
2023-01-22T22:53:00.145Z,0.70
2023-01-22T22:55:28.761Z,0.60
2023-01-22T22:57:56.558Z,0.60
2023-01-22T23:00:26.040Z,0.60
2023-01-22T23:02:53.814Z,0.60
2023-01-22T23:05:21.663Z,0.60
2023-01-22T23:07:49.430Z,0.50
2023-01-22T23:10:29.800Z,0.70
2023-01-22T23:12:58.815Z,0.70
2023-01-22T23:15:29.056Z,0.70
2023-01-22T23:17:57.659Z,0.70
2023-01-22T23:20:25.966Z,0.70
2023-01-22T23:22:54.999Z,0.70
2023-01-22T23:25:22.905Z,0.70
2023-01-22T23:27:50.743Z,0.70
2023-01-22T23:30:18.887Z,0.70
2023-01-22T23:32:48.270Z,0.70
2023-01-22T23:35:15.964Z,0.70
2023-01-22T23:37:43.770Z,0.60
2023-01-22T23:40:12.340Z,0.70
2023-01-22T23:42:40.045Z,0.70
2023-01-22T23:45:11.725Z,0.70
2023-01-22T23:47:39.633Z,0.80
2023-01-22T23:50:10.317Z,0.87
2023-01-22T23:52:39.354Z,0.70
2023-01-22T23:55:07.559Z,0.90
2023-01-22T23:57:35.363Z,0.80
